CDVK1: Caney River Near Cedar Vale, KS

Data processed at Wed May 22 2019 23:50


All information presented herein is the property of the government of the United States of America and may be revised or deleted at any time without prior notice.
Dissemination of this information without the expressed written consent of the Public Affairs Office, Tulsa District U.S. Army Corps of Engineers is strictly prohibited.
These data are gathered electronically and, as presented, have not undergone any form of quality control. These data are not guaranteed to be valid or correct.
Go to home page.
Go to station list.
Go to home page.

Upstream stations:

Downstream station:
Previous Day
Next Day
Current Day
    
SHEF ID:       CDVK1     CANEY R NR CEDAR VALE, KS
STATION TYPE:  
Regulating: Stage =    20.00, Flow =     8318

               PRECIP     STAGE  RIV-FLOW   VOLTAGE  BAT-LOAD
                   in        ft       cfs      volt      volt
              Ccp-Rev   Ccp-Rev   Ccp-Rev   Ccp-Rev   Ccp-Rev
(US/Central)
05/22 00:00      0.00     18.03      7026     12.73     12.65
05/22 01:00      0.00     17.56      6344     12.73     12.65
05/22 02:00      0.00     17.20      5829     12.73     12.65
05/22 03:00      0.00     16.97      5502     12.73     12.57
05/22 04:00      0.00     16.81      5279     12.65     12.57
05/22 05:00      0.00     16.68      5101     12.65     12.57
05/22 06:00      0.00     16.59      4979     12.65     12.57
05/22 07:00      0.00     16.49      4845     12.65     12.57
05/22 08:00      0.00     16.39      4712     12.81     12.57
05/22 09:00      0.00     16.29      4581     12.89     12.65
05/22 10:00      0.00     16.19      4451     13.05     12.73
05/22 11:00      0.00     16.09      4323     13.29     12.97
05/22 12:00      0.00     16.02      4234     13.29     13.13
05/22 13:00      0.00     15.93      4121     13.13     13.13
05/22 14:00      0.00     15.85      4021     13.29     12.97
05/22 15:00      0.00     15.75      3898     13.05     13.13
05/22 16:00      0.00     15.63      3758     13.05     12.97
05/22 17:00      0.00     15.46      3576     13.05     12.89
05/22 18:00      0.00     15.36      3470     13.13     12.97
05/22 19:00      0.00     15.24      3345     12.97     12.97
05/22 20:00      0.00     15.13      3232     12.89     12.81
05/22 21:00      0.00     15.03      3130     12.81     12.81
05/22 22:00      0.00     14.94      3039     12.81     12.73
05/22 23:00      0.15     14.84      2939     12.81     12.65